Time;durP1;ratioP1;P1;durP2;ratioP2;P2;SDS_P1;SDS_P2;PMS_P1;PMS_P2;Temp;Humidity;BMP_temperature;BMP_pressure;BME280_temperature;BME280_humidity;BME280_pressure;Samples;Min_cycle;Max_cycle;Signal;HPM_P1;HPM_P2
2021/05/07 00:02:16;;;;;;;1.10;0.70;;;21.70;45.40;;;;;;5112177;28;20112;-41
2021/05/07 00:04:43;;;;;;;1.38;0.60;;;21.70;45.40;;;;;;5094663;28;20089;-42
2021/05/07 00:07:10;;;;;;;0.70;0.60;;;21.70;45.40;;;;;;5114860;27;20128;-40
2021/05/07 00:09:37;;;;;;;0.77;0.52;;;21.70;45.40;;;;;;5113586;28;20047;-41
2021/05/07 00:12:07;;;;;;;0.73;0.60;;;21.70;45.40;;;;;;5111186;28;20048;-39
2021/05/07 00:14:34;;;;;;;0.85;0.43;;;21.70;45.40;;;;;;5111844;28;20415;-43
2021/05/07 00:17:01;;;;;;;0.80;0.60;;;21.70;45.40;;;;;;5111830;28;20047;-40
2021/05/07 00:19:28;;;;;;;1.35;0.73;;;21.70;45.40;;;;;;5113256;28;20122;-40
2021/05/07 00:21:55;;;;;;;1.67;0.60;;;21.70;45.40;;;;;;5112345;28;20047;-40
2021/05/07 00:24:22;;;;;;;0.77;0.45;;;21.70;45.40;;;;;;5112600;28;20055;-39
2021/05/07 00:26:50;;;;;;;1.08;0.60;;;21.70;45.40;;;;;;5094007;28;20418;-41
2021/05/07 00:29:16;;;;;;;0.82;0.50;;;21.70;45.40;;;;;;5111474;28;20044;-39
2021/05/07 00:31:43;;;;;;;1.65;0.40;;;21.70;45.40;;;;;;5109975;28;20055;-45
2021/05/07 00:34:10;;;;;;;0.40;0.40;;;21.70;45.40;;;;;;5110556;28;20055;-42
2021/05/07 00:36:37;;;;;;;0.40;0.40;;;21.70;45.40;;;;;;5108545;28;20495;-46
2021/05/07 00:39:04;;;;;;;0.68;0.45;;;21.70;45.40;;;;;;5110901;28;20109;-43
2021/05/07 00:41:30;;;;;;;0.60;0.45;;;21.70;45.40;;;;;;5110183;28;20047;-41
2021/05/07 00:43:57;;;;;;;0.85;0.40;;;21.70;45.40;;;;;;5109670;28;20475;-43
2021/05/07 00:46:23;;;;;;;0.52;0.45;;;21.70;45.40;;;;;;5111120;28;20043;-42
2021/05/07 00:48:50;;;;;;;1.23;0.68;;;21.70;45.40;;;;;;5110047;28;20048;-45
2021/05/07 00:51:17;;;;;;;0.80;0.68;;;21.70;45.40;;;;;;5109784;28;20047;-42
2021/05/07 00:53:44;;;;;;;0.85;0.55;;;21.70;45.40;;;;;;5110539;28;20043;-41
2021/05/07 00:56:11;;;;;;;0.65;0.60;;;21.70;45.40;;;;;;5108921;28;20041;-44
2021/05/07 00:58:37;;;;;;;0.82;0.50;;;21.70;45.40;;;;;;5109823;28;20380;-45
2021/05/07 01:01:04;;;;;;;0.45;0.40;;;21.70;45.40;;;;;;5109885;28;20044;-41
2021/05/07 01:03:31;;;;;;;0.68;0.50;;;21.70;46.00;;;;;;5109277;28;20056;-45
2021/05/07 01:05:58;;;;;;;0.52;0.40;;;21.70;45.40;;;;;;5110476;28;20047;-47
2021/05/07 01:08:25;;;;;;;0.82;0.50;;;21.70;45.40;;;;;;5109426;28;20119;-40
2021/05/07 01:10:53;;;;;;;0.85;0.50;;;21.70;45.40;;;;;;5110486;28;20100;-40
2021/05/07 01:13:19;;;;;;;0.75;0.50;;;21.70;45.40;;;;;;5110065;28;20503;-42
2021/05/07 01:15:46;;;;;;;0.70;0.50;;;21.70;45.40;;;;;;5108472;28;20051;-41
2021/05/07 01:18:12;;;;;;;0.50;0.50;;;21.70;45.40;;;;;;5100253;28;20086;-44
2021/05/07 01:20:40;;;;;;;0.60;0.50;;;21.70;45.40;;;;;;5109613;28;20063;-41
2021/05/07 01:23:09;;;;;;;0.68;0.50;;;21.70;45.40;;;;;;5109590;28;20062;-45
2021/05/07 01:25:44;;;;;;;0.70;0.50;;;21.70;45.40;;;;;;5114314;28;20048;-40
2021/05/07 01:28:14;;;;;;;1.45;0.70;;;21.70;45.40;;;;;;5113637;28;20044;-41
2021/05/07 01:30:45;;;;;;;0.60;0.55;;;21.70;45.40;;;;;;5112664;28;20043;-40
2021/05/07 01:33:14;;;;;;;0.52;0.50;;;21.70;45.40;;;;;;5112960;28;20112;-41
2021/05/07 01:35:42;;;;;;;0.98;0.63;;;21.70;45.40;;;;;;5112936;27;20112;-39
2021/05/07 01:38:14;;;;;;;1.38;0.50;;;21.70;45.40;;;;;;5112937;28;20101;-41
2021/05/07 01:40:46;;;;;;;0.77;0.57;;;21.70;45.40;;;;;;5114174;28;20055;-40
2021/05/07 01:43:14;;;;;;;0.93;0.52;;;21.70;45.40;;;;;;5101128;28;20039;-40
2021/05/07 01:45:43;;;;;;;0.80;0.50;;;21.70;45.40;;;;;;5113314;28;20070;-41
2021/05/07 01:48:11;;;;;;;0.95;0.57;;;21.70;45.40;;;;;;5114058;28;20082;-41
2021/05/07 01:50:42;;;;;;;0.35;0.32;;;21.70;45.40;;;;;;5112388;27;20039;-39
2021/05/07 01:53:10;;;;;;;0.43;0.40;;;21.70;45.40;;;;;;5113542;27;20097;-44
2021/05/07 01:55:40;;;;;;;0.88;0.50;;;21.70;45.40;;;;;;5113187;28;20058;-40
2021/05/07 01:58:11;;;;;;;0.60;0.38;;;21.70;45.40;;;;;;5112461;27;20067;-40
2021/05/07 02:00:39;;;;;;;0.75;0.40;;;21.70;45.40;;;;;;5113031;27;20048;-39
2021/05/07 02:03:07;;;;;;;1.33;0.60;;;21.70;45.40;;;;;;5112118;28;20047;-40
2021/05/07 02:05:34;;;;;;;0.55;0.40;;;21.70;45.40;;;;;;5112579;28;20096;-41
2021/05/07 02:08:03;;;;;;;0.50;0.40;;;21.70;45.40;;;;;;5112935;28;20081;-40
2021/05/07 02:10:31;;;;;;;0.57;0.57;;;21.70;45.50;;;;;;5111832;28;20426;-40
2021/05/07 02:12:59;;;;;;;0.90;0.70;;;21.70;45.40;;;;;;5112306;28;20048;-40
2021/05/07 02:15:26;;;;;;;0.80;0.50;;;21.70;45.40;;;;;;5112834;28;20108;-44
2021/05/07 02:17:54;;;;;;;1.08;0.32;;;21.70;45.40;;;;;;5111213;28;20039;-41
2021/05/07 02:20:24;;;;;;;0.73;0.60;;;21.70;45.40;;;;;;5112162;28;20047;-41
2021/05/07 02:22:51;;;;;;;0.68;0.47;;;21.70;45.40;;;;;;5112171;28;20889;-39
2021/05/07 02:25:23;;;;;;;1.02;0.50;;;21.70;45.40;;;;;;5111904;28;20039;-40
2021/05/07 02:27:52;;;;;;;0.63;0.50;;;21.70;45.50;;;;;;5113107;28;20051;-40
2021/05/07 02:30:22;;;;;;;0.60;0.55;;;21.70;45.40;;;;;;5100533;28;20503;-40
2021/05/07 02:32:49;;;;;;;0.50;0.40;;;21.70;45.40;;;;;;5111861;28;20140;-42
2021/05/07 02:35:16;;;;;;;0.70;0.60;;;21.70;46.00;;;;;;5112805;28;20388;-41
2021/05/07 02:37:42;;;;;;;0.50;0.43;;;21.60;45.40;;;;;;5100241;28;20048;-39
2021/05/07 02:40:10;;;;;;;1.08;0.52;;;21.70;45.40;;;;;;5112580;28;20078;-40
2021/05/07 02:42:38;;;;;;;0.68;0.50;;;21.70;45.40;;;;;;5111835;28;20563;-41
2021/05/07 02:45:07;;;;;;;0.75;0.43;;;21.70;45.50;;;;;;5111087;28;20040;-42
2021/05/07 02:47:35;;;;;;;0.43;0.30;;;21.70;45.40;;;;;;5112499;27;20044;-40
2021/05/07 02:50:08;;;;;;;0.63;0.52;;;21.70;45.40;;;;;;5111191;28;20118;-40
2021/05/07 02:52:37;;;;;;;0.70;0.50;;;21.60;45.40;;;;;;5112232;27;20052;-40
2021/05/07 02:55:06;;;;;;;0.57;0.50;;;21.70;45.50;;;;;;5112498;28;20552;-40
2021/05/07 02:57:33;;;;;;;0.77;0.57;;;21.70;45.50;;;;;;5110873;28;20043;-40
2021/05/07 03:00:00;;;;;;;0.80;0.57;;;21.70;45.50;;;;;;5101152;28;20575;-40
2021/05/07 03:02:26;;;;;;;0.82;0.50;;;21.70;45.50;;;;;;5112056;28;20082;-40
2021/05/07 03:04:54;;;;;;;0.80;0.60;;;21.70;45.50;;;;;;5111591;28;20400;-40
2021/05/07 03:07:21;;;;;;;0.75;0.45;;;21.70;45.40;;;;;;5112307;27;20043;-40
2021/05/07 03:09:48;;;;;;;0.40;0.40;;;21.70;45.40;;;;;;5110872;28;20495;-40
2021/05/07 03:12:14;;;;;;;0.50;0.50;;;21.70;45.50;;;;;;5109550;28;20044;-41
2021/05/07 03:14:42;;;;;;;1.55;0.60;;;21.60;45.40;;;;;;5111596;28;20134;-40
2021/05/07 03:17:09;;;;;;;0.73;0.52;;;21.70;45.50;;;;;;5100006;28;20054;-40
2021/05/07 03:19:36;;;;;;;0.63;0.45;;;21.70;45.50;;;;;;5110793;28;20052;-40
2021/05/07 03:22:02;;;;;;;0.73;0.60;;;21.70;45.50;;;;;;5112037;28;20094;-40
2021/05/07 03:24:29;;;;;;;0.80;0.52;;;21.70;45.50;;;;;;5110739;28;20085;-39
2021/05/07 03:26:55;;;;;;;0.93;0.63;;;21.70;45.50;;;;;;5111480;28;20043;-40
2021/05/07 03:29:22;;;;;;;1.20;0.50;;;21.70;45.50;;;;;;5110782;28;20456;-43
2021/05/07 03:31:49;;;;;;;0.65;0.40;;;21.70;45.50;;;;;;5109745;28;20104;-40
2021/05/07 03:34:16;;;;;;;0.60;0.30;;;21.60;45.40;;;;;;5111669;28;20051;-40
2021/05/07 03:36:43;;;;;;;0.73;0.50;;;21.60;45.40;;;;;;5110874;28;20043;-40
2021/05/07 03:39:10;;;;;;;0.57;0.40;;;21.70;45.50;;;;;;5101254;28;20108;-41
2021/05/07 03:41:37;;;;;;;1.10;0.70;;;21.60;45.40;;;;;;5111187;28;20499;-42
2021/05/07 03:44:04;;;;;;;0.68;0.40;;;21.70;45.50;;;;;;5110519;27;20516;-42
2021/05/07 03:46:31;;;;;;;0.55;0.50;;;21.70;45.50;;;;;;5110309;28;20048;-44
2021/05/07 03:48:57;;;;;;;0.70;0.50;;;21.70;45.50;;;;;;5111081;28;20572;-43
2021/05/07 03:51:24;;;;;;;0.70;0.50;;;21.70;45.50;;;;;;5110299;28;20122;-42
2021/05/07 03:53:50;;;;;;;0.52;0.50;;;21.70;45.50;;;;;;5101245;28;20047;-43
2021/05/07 03:56:17;;;;;;;0.75;0.50;;;21.60;45.40;;;;;;5110433;28;20415;-45
2021/05/07 03:58:43;;;;;;;0.65;0.40;;;21.60;45.40;;;;;;5110763;28;20043;-44
2021/05/07 04:01:10;;;;;;;0.68;0.55;;;21.60;45.40;;;;;;5102040;28;20101;-43
2021/05/07 04:03:37;;;;;;;1.10;0.80;;;21.60;45.40;;;;;;5109676;28;20047;-43
2021/05/07 04:06:07;;;;;;;0.70;0.52;;;21.60;45.40;;;;;;5110789;28;20051;-42
2021/05/07 04:08:39;;;;;;;0.73;0.68;;;21.70;45.50;;;;;;5110524;28;20044;-41
2021/05/07 04:11:19;;;;;;;0.95;0.40;;;21.70;45.50;;;;;;5110278;28;20047;-41
2021/05/07 04:13:46;;;;;;;1.02;0.63;;;21.70;45.50;;;;;;5110048;28;20178;-43
2021/05/07 04:16:13;;;;;;;0.90;0.55;;;21.60;45.40;;;;;;5110332;28;20047;-46
2021/05/07 04:18:41;;;;;;;0.98;0.45;;;21.70;45.50;;;;;;5109324;28;20415;-44
2021/05/07 04:21:08;;;;;;;0.90;0.50;;;21.60;45.40;;;;;;5110661;28;20051;-46
2021/05/07 04:23:35;;;;;;;0.90;0.60;;;21.60;45.40;;;;;;5110198;28;20052;-45
2021/05/07 04:26:03;;;;;;;0.70;0.40;;;21.70;45.50;;;;;;5110424;28;20098;-41
2021/05/07 04:28:29;;;;;;;0.40;0.40;;;21.70;45.50;;;;;;5110484;28;20077;-42
2021/05/07 04:30:56;;;;;;;0.50;0.50;;;21.70;45.50;;;;;;5109594;28;20039;-42
2021/05/07 04:33:23;;;;;;;0.70;0.43;;;21.70;45.50;;;;;;5110711;28;20046;-43
2021/05/07 04:35:49;;;;;;;0.47;0.40;;;21.60;45.40;;;;;;5110841;28;20388;-43
2021/05/07 04:38:16;;;;;;;1.42;0.45;;;21.60;45.40;;;;;;5109706;28;20048;-44
2021/05/07 04:40:43;;;;;;;0.70;0.50;;;21.70;45.50;;;;;;5099842;28;20962;-41
2021/05/07 04:43:09;;;;;;;0.60;0.50;;;21.70;45.50;;;;;;5110461;28;20048;-42
2021/05/07 04:45:36;;;;;;;0.80;0.50;;;21.70;45.50;;;;;;5110539;28;20043;-43
2021/05/07 04:48:11;;;;;;;0.43;0.40;;;21.70;45.80;;;;;;5110386;28;20089;-41
2021/05/07 04:50:38;;;;;;;0.43;0.40;;;21.70;45.50;;;;;;5109360;28;20082;-43
2021/05/07 04:53:05;;;;;;;0.60;0.40;;;21.60;45.40;;;;;;5110440;28;20872;-42
2021/05/07 04:55:31;;;;;;;0.70;0.50;;;21.70;45.50;;;;;;5110363;28;20530;-42
2021/05/07 04:57:58;;;;;;;1.10;0.68;;;21.70;45.50;;;;;;5110219;28;20051;-40
2021/05/07 05:00:25;;;;;;;1.08;0.60;;;21.70;45.50;;;;;;5113462;28;20048;-40
2021/05/07 05:02:52;;;;;;;0.57;0.47;;;21.70;45.50;;;;;;5113792;28;20487;-40
2021/05/07 05:05:19;;;;;;;0.50;0.45;;;21.70;45.50;;;;;;5113163;28;20078;-40
2021/05/07 05:07:51;;;;;;;0.90;0.50;;;21.70;45.50;;;;;;5114798;28;20058;-40
2021/05/07 05:10:19;;;;;;;0.45;0.40;;;21.70;45.50;;;;;;5113760;28;20406;-40
2021/05/07 05:12:46;;;;;;;0.57;0.43;;;21.70;45.50;;;;;;5113197;28;20056;-41
2021/05/07 05:15:14;;;;;;;1.08;0.70;;;21.70;45.50;;;;;;5114395;28;20395;-41
2021/05/07 05:17:41;;;;;;;0.60;0.40;;;21.70;45.50;;;;;;5112284;28;20509;-42
2021/05/07 05:20:09;;;;;;;0.70;0.57;;;21.70;45.60;;;;;;5113408;28;20048;-40
2021/05/07 05:22:36;;;;;;;0.60;0.47;;;21.70;45.50;;;;;;5113932;28;20077;-40
2021/05/07 05:25:05;;;;;;;0.80;0.60;;;21.70;45.50;;;;;;5112244;27;20072;-41
2021/05/07 05:27:34;;;;;;;0.55;0.45;;;21.70;45.50;;;;;;5112931;28;20093;-41
2021/05/07 05:30:01;;;;;;;0.35;0.35;;;21.70;45.40;;;;;;5113170;28;20051;-40
2021/05/07 05:32:28;;;;;;;0.43;0.32;;;21.70;45.50;;;;;;5112610;28;20048;-43
2021/05/07 05:34:55;;;;;;;0.70;0.50;;;21.70;45.50;;;;;;5113979;28;20051;-41
2021/05/07 05:37:22;;;;;;;0.73;0.40;;;21.70;45.40;;;;;;5101921;28;20047;-40
2021/05/07 05:39:48;;;;;;;0.70;0.55;;;21.70;45.50;;;;;;5113457;27;20101;-39
2021/05/07 05:42:35;;;;;;;0.60;0.50;;;21.70;45.40;;;;;;5113960;28;20044;-39
2021/05/07 05:45:02;;;;;;;0.47;0.40;;;21.70;45.50;;;;;;5112399;28;20051;-40
2021/05/07 05:47:29;;;;;;;0.60;0.43;;;21.70;45.40;;;;;;5112782;28;20119;-41
2021/05/07 05:49:57;;;;;;;0.50;0.50;;;21.70;45.40;;;;;;5102333;28;20047;-39
2021/05/07 05:52:24;;;;;;;0.30;0.30;;;21.70;45.40;;;;;;5111402;28;20051;-42
2021/05/07 05:54:51;;;;;;;0.95;0.50;;;21.70;45.40;;;;;;5113736;27;20039;-40
2021/05/07 05:57:19;;;;;;;0.52;0.40;;;21.70;45.40;;;;;;5112796;28;20449;-40
2021/05/07 05:59:49;;;;;;;0.55;0.40;;;21.70;45.40;;;;;;5112229;28;20089;-41
2021/05/07 06:02:17;;;;;;;0.63;0.40;;;21.70;45.40;;;;;;5114370;27;20082;-39
2021/05/07 06:04:45;;;;;;;0.50;0.32;;;21.70;45.40;;;;;;5111315;28;20036;-40
2021/05/07 06:07:12;;;;;;;0.52;0.47;;;21.70;45.40;;;;;;5111815;27;20079;-41
2021/05/07 06:09:38;;;;;;;0.95;0.50;;;21.70;45.40;;;;;;5112971;28;20063;-42
2021/05/07 06:12:08;;;;;;;0.65;0.40;;;21.70;45.40;;;;;;5100233;28;20035;-40
2021/05/07 06:14:35;;;;;;;1.02;0.40;;;21.70;45.40;;;;;;5112307;28;20126;-39
2021/05/07 06:17:08;;;;;;;0.35;0.35;;;21.70;45.50;;;;;;5112907;27;20134;-41
2021/05/07 06:19:36;;;;;;;0.60;0.40;;;21.70;45.50;;;;;;5112067;27;20564;-40
2021/05/07 06:22:03;;;;;;;0.60;0.50;;;21.70;45.50;;;;;;5112344;27;20043;-42
2021/05/07 06:24:29;;;;;;;0.65;0.40;;;21.70;45.50;;;;;;5111938;28;20039;-40
2021/05/07 06:26:56;;;;;;;0.50;0.43;;;21.70;45.50;;;;;;5112683;27;20040;-40
2021/05/07 06:29:23;;;;;;;0.52;0.40;;;21.70;45.50;;;;;;5112151;28;20039;-40
2021/05/07 06:31:49;;;;;;;1.08;0.55;;;21.70;45.40;;;;;;5111287;28;20043;-40
2021/05/07 06:34:16;;;;;;;0.55;0.40;;;21.70;45.40;;;;;;5112137;28;20044;-41
2021/05/07 06:36:42;;;;;;;0.93;0.43;;;21.70;45.40;;;;;;5101982;28;20096;-40
2021/05/07 06:39:09;;;;;;;0.65;0.40;;;21.70;45.40;;;;;;5111256;27;20463;-40
2021/05/07 06:41:36;;;;;;;0.40;0.40;;;21.70;45.40;;;;;;5113180;27;20044;-40
2021/05/07 06:44:04;;;;;;;0.88;0.60;;;21.70;45.50;;;;;;5111509;28;20044;-39
2021/05/07 06:46:32;;;;;;;0.60;0.50;;;21.70;45.50;;;;;;5111405;28;20094;-40
2021/05/07 06:48:58;;;;;;;0.88;0.45;;;21.70;45.40;;;;;;5112802;27;20052;-42
2021/05/07 06:51:29;;;;;;;0.90;0.40;;;21.70;45.40;;;;;;5110898;27;20035;-39
2021/05/07 06:53:56;;;;;;;0.45;0.45;;;21.70;45.40;;;;;;5111985;28;20051;-40
2021/05/07 06:56:22;;;;;;;0.43;0.40;;;21.70;45.40;;;;;;5112003;28;20051;-41
2021/05/07 06:58:49;;;;;;;0.43;0.43;;;21.70;45.40;;;;;;5099143;28;20059;-40
2021/05/07 07:01:16;;;;;;;0.50;0.40;;;21.70;45.40;;;;;;5111769;28;20563;-40
2021/05/07 07:03:43;;;;;;;0.90;0.60;;;21.70;45.40;;;;;;5111554;28;20043;-46
2021/05/07 07:06:10;;;;;;;0.85;0.60;;;21.70;45.40;;;;;;5110647;28;20057;-40
2021/05/07 07:08:36;;;;;;;0.52;0.40;;;21.70;45.40;;;;;;5112399;28;20118;-41
2021/05/07 07:11:03;;;;;;;0.52;0.40;;;21.70;45.40;;;;;;5111214;27;20097;-40
2021/05/07 07:13:29;;;;;;;0.70;0.50;;;21.70;45.40;;;;;;5111196;27;20418;-40
2021/05/07 07:15:57;;;;;;;0.50;0.43;;;21.70;45.40;;;;;;5112434;28;20415;-40
2021/05/07 07:18:24;;;;;;;1.08;0.50;;;21.70;45.40;;;;;;5110737;28;20084;-39
2021/05/07 07:20:51;;;;;;;0.73;0.60;;;21.70;45.40;;;;;;5111836;28;20055;-44
2021/05/07 07:23:18;;;;;;;0.77;0.40;;;21.70;45.40;;;;;;5111265;27;20131;-42
2021/05/07 07:25:45;;;;;;;0.80;0.40;;;21.70;45.40;;;;;;5111756;27;20043;-39
2021/05/07 07:28:12;;;;;;;0.38;0.30;;;21.70;45.40;;;;;;5111913;28;20048;-47
2021/05/07 07:30:38;;;;;;;0.60;0.40;;;21.70;45.40;;;;;;5110303;28;20046;-40
2021/05/07 07:33:05;;;;;;;0.40;0.40;;;21.70;45.40;;;;;;5111582;27;20048;-40
2021/05/07 07:35:32;;;;;;;0.40;0.40;;;21.70;45.40;;;;;;5110551;28;20396;-43
2021/05/07 07:37:58;;;;;;;0.60;0.50;;;21.70;45.40;;;;;;5110380;28;20445;-42
2021/05/07 07:40:25;;;;;;;0.73;0.50;;;21.70;45.40;;;;;;5112224;27;20088;-42
2021/05/07 07:42:52;;;;;;;0.60;0.50;;;21.70;45.40;;;;;;5098257;28;20051;-40
2021/05/07 07:45:19;;;;;;;0.60;0.50;;;21.70;45.40;;;;;;5110714;28;20042;-42
2021/05/07 07:47:46;;;;;;;0.60;0.30;;;21.70;45.40;;;;;;5112083;28;20067;-43
2021/05/07 07:50:13;;;;;;;0.52;0.40;;;21.70;45.40;;;;;;5110061;28;20049;-42
2021/05/07 07:52:40;;;;;;;0.93;0.40;;;21.70;45.40;;;;;;5110786;28;20047;-42
2021/05/07 07:55:09;;;;;;;0.45;0.40;;;21.70;45.40;;;;;;5110935;28;20055;-44
2021/05/07 07:57:36;;;;;;;0.60;0.50;;;21.80;45.50;;;;;;5109761;28;20039;-40
2021/05/07 08:00:05;;;;;;;0.60;0.47;;;21.70;45.40;;;;;;5110485;28;20467;-40
2021/05/07 08:02:31;;;;;;;0.47;0.40;;;21.70;45.40;;;;;;5111297;28;20160;-42
2021/05/07 08:04:58;;;;;;;0.55;0.47;;;21.80;45.40;;;;;;5108991;28;20544;-43
2021/05/07 08:07:25;;;;;;;0.60;0.40;;;21.80;45.40;;;;;;5111341;28;20482;-41
2021/05/07 08:09:51;;;;;;;0.60;0.40;;;21.80;45.40;;;;;;5110513;28;20465;-43
2021/05/07 08:12:18;;;;;;;0.70;0.50;;;21.80;45.40;;;;;;5109014;28;20051;-42
2021/05/07 08:14:44;;;;;;;0.80;0.50;;;21.80;45.50;;;;;;5110680;28;20560;-43
2021/05/07 08:17:11;;;;;;;0.90;0.55;;;21.80;45.40;;;;;;5109866;28;20402;-40
2021/05/07 08:19:42;;;;;;;0.60;0.45;;;21.80;45.40;;;;;;5109984;28;20053;-44
2021/05/07 08:22:08;;;;;;;1.33;0.70;;;21.80;45.40;;;;;;5110574;28;20496;-42
2021/05/07 08:24:35;;;;;;;0.57;0.47;;;21.80;45.40;;;;;;5097971;28;20043;-40
2021/05/07 08:27:02;;;;;;;0.52;0.50;;;21.80;45.40;;;;;;5100231;28;20054;-42
2021/05/07 08:29:28;;;;;;;0.68;0.40;;;21.80;45.40;;;;;;5110776;28;20047;-41
2021/05/07 08:31:55;;;;;;;0.55;0.40;;;21.80;45.40;;;;;;5110117;28;20186;-40
2021/05/07 08:34:22;;;;;;;0.70;0.50;;;21.80;45.40;;;;;;5114971;28;20101;-40
2021/05/07 08:36:49;;;;;;;0.50;0.50;;;21.80;45.40;;;;;;5113695;28;20454;-40
2021/05/07 08:39:16;;;;;;;0.70;0.60;;;21.80;45.40;;;;;;5115118;27;20044;-40
2021/05/07 08:41:43;;;;;;;0.40;0.38;;;21.80;45.40;;;;;;5114522;28;20058;-40
2021/05/07 08:44:11;;;;;;;0.80;0.40;;;21.80;45.40;;;;;;5113539;28;20047;-42
2021/05/07 08:46:40;;;;;;;0.40;0.38;;;21.80;45.40;;;;;;5113747;28;20050;-41
2021/05/07 08:49:08;;;;;;;0.50;0.40;;;21.80;45.40;;;;;;5114525;28;20070;-42
2021/05/07 08:51:38;;;;;;;0.40;0.40;;;21.80;45.40;;;;;;5113520;27;20036;-40
2021/05/07 08:54:07;;;;;;;0.38;0.38;;;21.80;45.40;;;;;;5114882;28;20398;-46
2021/05/07 08:56:35;;;;;;;0.47;0.43;;;21.80;45.40;;;;;;5113098;28;20044;-43
2021/05/07 08:59:03;;;;;;;0.40;0.40;;;21.80;45.40;;;;;;5102749;28;20086;-41
2021/05/07 09:01:50;;;;;;;0.98;0.50;;;21.80;45.40;;;;;;5114390;28;20507;-41
2021/05/07 09:04:20;;;;;;;0.38;0.38;;;21.80;45.40;;;;;;5113809;28;20519;-41
2021/05/07 09:06:50;;;;;;;0.40;0.30;;;21.80;45.40;;;;;;5113954;28;20040;-45
2021/05/07 09:09:27;;;;;;;0.60;0.30;;;21.80;45.40;;;;;;5114296;28;20047;-42
2021/05/07 09:12:02;;;;;;;0.47;0.40;;;21.80;45.40;;;;;;5112588;28;20127;-41
2021/05/07 09:14:30;;;;;;;0.47;0.30;;;21.80;45.40;;;;;;5103536;28;20055;-40
2021/05/07 09:17:22;;;;;;;0.55;0.40;;;21.80;45.40;;;;;;5114431;28;20058;-40
2021/05/07 09:20:11;;;;;;;0.50;0.40;;;21.80;45.40;;;;;;5113775;27;20051;-40
2021/05/07 09:22:40;;;;;;;0.68;0.50;;;21.80;45.40;;;;;;5112815;27;20043;-43
2021/05/07 09:25:12;;;;;;;0.40;0.40;;;21.80;45.40;;;;;;5113697;28;20495;-40
2021/05/07 09:27:40;;;;;;;0.40;0.40;;;21.80;45.40;;;;;;5113001;28;20491;-40
2021/05/07 09:30:23;;;;;;;0.50;0.32;;;21.80;45.40;;;;;;5112851;28;20073;-40
2021/05/07 09:32:54;;;;;;;0.40;0.30;;;21.80;45.40;;;;;;5114345;27;20116;-40
2021/05/07 09:35:26;;;;;;;0.43;0.38;;;21.80;45.40;;;;;;5113400;27;20487;-40
2021/05/07 09:38:04;;;;;;;0.73;0.60;;;21.80;45.40;;;;;;5112881;28;20112;-40
2021/05/07 09:40:31;;;;;;;0.52;0.35;;;21.80;45.40;;;;;;5113763;28;20047;-40
2021/05/07 09:43:10;;;;;;;0.73;0.40;;;21.80;45.40;;;;;;5100469;28;20108;-40
2021/05/07 09:45:40;;;;;;;0.80;0.52;;;21.80;45.40;;;;;;5111819;28;20503;-40
2021/05/07 09:48:20;;;;;;;0.50;0.50;;;21.80;45.40;;;;;;5113859;28;20044;-40
2021/05/07 09:50:49;;;;;;;0.50;0.40;;;21.80;45.40;;;;;;5111809;27;20049;-40
2021/05/07 09:53:21;;;;;;;0.47;0.32;;;21.80;45.40;;;;;;5113443;28;20052;-42
2021/05/07 09:55:50;;;;;;;0.40;0.32;;;21.80;45.40;;;;;;5112234;28;20058;-42
2021/05/07 09:58:17;;;;;;;0.80;0.50;;;21.80;45.40;;;;;;5111780;28;20075;-40
2021/05/07 10:00:44;;;;;;;0.50;0.38;;;21.80;45.40;;;;;;5112724;28;20480;-41
2021/05/07 10:03:11;;;;;;;0.88;0.50;;;21.80;45.40;;;;;;5113381;28;20043;-42
2021/05/07 10:05:38;;;;;;;0.60;0.40;;;21.80;45.40;;;;;;5111918;28;20047;-40
2021/05/07 10:08:06;;;;;;;0.60;0.40;;;21.80;45.40;;;;;;5113008;28;20067;-41
2021/05/07 10:10:38;;;;;;;0.50;0.40;;;21.80;45.40;;;;;;5111774;28;20048;-41
2021/05/07 10:13:08;;;;;;;0.38;0.30;;;21.80;46.00;;;;;;5111474;28;20490;-41
2021/05/07 10:15:37;;;;;;;0.63;0.40;;;21.80;46.00;;;;;;5113731;28;20043;-43
2021/05/07 10:18:06;;;;;;;0.88;0.57;;;21.80;45.40;;;;;;5111783;27;20047;-42
2021/05/07 10:20:38;;;;;;;0.75;0.40;;;21.80;45.40;;;;;;5112029;28;20087;-40
2021/05/07 10:23:19;;;;;;;0.40;0.40;;;21.80;45.40;;;;;;5102566;28;20570;-39
2021/05/07 10:26:06;;;;;;;1.10;0.40;;;21.80;45.30;;;;;;5111080;28;20043;-41
2021/05/07 10:28:53;;;;;;;0.80;0.60;;;21.80;45.30;;;;;;5111604;28;20078;-40
2021/05/07 10:31:21;;;;;;;0.45;0.35;;;21.80;45.30;;;;;;5112823;28;20076;-41
2021/05/07 10:34:03;;;;;;;0.45;0.35;;;21.80;45.30;;;;;;5111914;28;20151;-41
2021/05/07 10:36:53;;;;;;;0.40;0.40;;;21.80;45.40;;;;;;5111220;28;20393;-39
2021/05/07 10:39:22;;;;;;;0.88;0.40;;;21.80;45.40;;;;;;5112624;28;20086;-40
2021/05/07 10:41:51;;;;;;;0.73;0.30;;;21.80;45.40;;;;;;5111294;28;20047;-41
2021/05/07 10:44:19;;;;;;;0.40;0.40;;;21.80;45.40;;;;;;5100987;28;20055;-40
2021/05/07 10:46:58;;;;;;;0.35;0.28;;;21.80;45.40;;;;;;5101267;28;20506;-40
2021/05/07 10:49:32;;;;;;;0.30;0.30;;;21.80;45.40;;;;;;5111395;28;20509;-40
2021/05/07 10:51:58;;;;;;;0.20;0.20;;;21.80;45.40;;;;;;5111250;28;20085;-41
2021/05/07 10:54:48;;;;;;;0.75;0.50;;;21.80;45.40;;;;;;5112836;28;20047;-40
2021/05/07 10:57:26;;;;;;;0.40;0.32;;;21.80;45.40;;;;;;5111086;28;20047;-40
2021/05/07 11:00:04;;;;;;;0.80;0.47;;;21.80;45.40;;;;;;5110568;28;20054;-40
2021/05/07 11:02:52;;;;;;;0.68;0.38;;;21.80;45.40;;;;;;5112095;28;20059;-40
2021/05/07 11:05:39;;;;;;;0.40;0.32;;;21.80;45.40;;;;;;5111539;28;20601;-41
2021/05/07 11:08:07;;;;;;;0.70;0.40;;;21.80;45.40;;;;;;5110567;28;20460;-41
2021/05/07 11:10:33;;;;;;;0.40;0.32;;;21.80;45.40;;;;;;5112293;28;20054;-42
2021/05/07 11:13:00;;;;;;;0.50;0.40;;;21.80;45.40;;;;;;5111037;28;20093;-41
2021/05/07 11:15:27;;;;;;;0.75;0.40;;;21.80;45.40;;;;;;5071556;28;20816;-41
2021/05/07 11:18:09;;;;;;;0.40;0.35;;;21.80;45.50;;;;;;5070031;28;20083;-46
2021/05/07 11:20:37;;;;;;;0.30;0.28;;;21.80;45.50;;;;;;5070459;28;20496;-42
2021/05/07 11:23:13;;;;;;;0.52;0.50;;;21.80;45.50;;;;;;5070450;28;20053;-44
2021/05/07 11:25:41;;;;;;;0.40;0.38;;;21.80;45.50;;;;;;5071516;28;20052;-46
2021/05/07 11:28:14;;;;;;;0.47;0.38;;;21.80;45.50;;;;;;5069424;28;20470;-40
2021/05/07 11:30:54;;;;;;;0.50;0.40;;;21.80;45.50;;;;;;5070736;28;20098;-41
2021/05/07 11:33:23;;;;;;;0.60;0.50;;;21.80;45.60;;;;;;5071046;28;20128;-43
2021/05/07 11:36:14;;;;;;;0.43;0.30;;;21.80;45.50;;;;;;5069647;28;20052;-44
2021/05/07 11:38:42;;;;;;;0.43;0.43;;;21.80;45.60;;;;;;5070238;28;20060;-40
2021/05/07 11:41:22;;;;;;;0.75;0.28;;;21.80;45.60;;;;;;5071041;28;20059;-42
2021/05/07 11:43:50;;;;;;;0.70;0.35;;;21.70;45.50;;;;;;5069790;28;20052;-44
2021/05/07 11:46:18;;;;;;;0.50;0.50;;;21.70;45.50;;;;;;5069420;28;20114;-40
2021/05/07 11:48:47;;;;;;;0.30;0.30;;;21.70;45.50;;;;;;5070795;28;20098;-39
2021/05/07 11:51:21;;;;;;;0.70;0.40;;;21.70;45.50;;;;;;5068746;28;20136;-43
2021/05/07 11:53:59;;;;;;;0.40;0.30;;;21.70;45.50;;;;;;5070865;28;20483;-40
2021/05/07 11:56:26;;;;;;;0.32;0.30;;;21.80;45.60;;;;;;5070867;28;20056;-42
2021/05/07 11:58:54;;;;;;;0.35;0.30;;;21.70;45.50;;;;;;5069028;28;20055;-42
2021/05/07 12:01:24;;;;;;;0.40;0.40;;;21.80;45.60;;;;;;5071183;28;20118;-40
2021/05/07 12:03:54;;;;;;;0.57;0.30;;;21.80;45.60;;;;;;5070126;28;20403;-40
2021/05/07 12:06:28;;;;;;;0.50;0.40;;;21.80;45.60;;;;;;5069783;28;20049;-41
2021/05/07 12:09:09;;;;;;;0.60;0.40;;;21.70;45.50;;;;;;5070193;28;20542;-41
2021/05/07 12:11:36;;;;;;;0.90;0.38;;;21.70;45.40;;;;;;5069334;28;20072;-44
2021/05/07 12:14:14;;;;;;;0.40;0.30;;;21.80;45.50;;;;;;5086659;28;20059;-42
2021/05/07 12:16:41;;;;;;;0.60;0.40;;;21.80;45.60;;;;;;5110851;28;20055;-40
2021/05/07 12:19:09;;;;;;;0.47;0.20;;;21.80;45.60;;;;;;5109906;28;20406;-43
2021/05/07 12:21:43;;;;;;;0.38;0.30;;;21.80;45.50;;;;;;5110266;28;20484;-40
2021/05/07 12:24:12;;;;;;;;;;;21.80;45.50;;;;;;5100430;28;20057;-40
2021/05/07 12:26:50;;;;;;;0.47;0.30;;;21.80;45.50;;;;;;5109442;28;19932;-40
2021/05/07 12:29:17;;;;;;;0.35;0.20;;;21.80;45.50;;;;;;5109655;28;20063;-40
2021/05/07 12:31:44;;;;;;;0.40;0.40;;;21.70;45.50;;;;;;5100322;28;20101;-40
2021/05/07 12:34:18;;;;;;;0.30;0.30;;;21.80;45.60;;;;;;5109950;28;20046;-40
2021/05/07 12:37:00;;;;;;;0.38;0.30;;;21.80;45.60;;;;;;5100414;28;20062;-40
2021/05/07 12:39:28;;;;;;;1.13;0.30;;;21.80;45.60;;;;;;5110885;28;20048;-40
2021/05/07 12:41:56;;;;;;;0.30;0.25;;;21.80;45.60;;;;;;5109277;28;20112;-40
2021/05/07 12:44:23;;;;;;;0.22;0.22;;;21.70;45.50;;;;;;5110523;28;20051;-40
2021/05/07 12:46:50;;;;;;;0.40;0.30;;;21.80;45.60;;;;;;5110212;28;20448;-41
2021/05/07 12:49:18;;;;;;;0.30;0.28;;;21.70;45.50;;;;;;5110614;28;20047;-40
2021/05/07 12:51:44;;;;;;;0.47;0.38;;;21.80;45.60;;;;;;5110839;28;20047;-40
2021/05/07 12:54:11;;;;;;;0.50;0.35;;;21.70;45.50;;;;;;5109895;28;20121;-41
2021/05/07 12:56:41;;;;;;;0.55;0.40;;;21.70;45.50;;;;;;5109714;28;20062;-40
2021/05/07 12:59:08;;;;;;;2.03;0.45;;;21.70;45.50;;;;;;5110712;28;20055;-41